sensor_id;sensor_type;location;lat;lon;timestamp;pressure;altitude;pressure_sealevel;temperature;humidity
43155;BME280;34212;51.018;13.586;2023-02-12T00:03:03;99550.03;;;5.52;98.33
43155;BME280;34212;51.018;13.586;2023-02-12T00:08:04;99553.50;;;5.52;98.24
43155;BME280;34212;51.018;13.586;2023-02-12T00:13:06;99549.91;;;5.53;98.69
43155;BME280;34212;51.018;13.586;2023-02-12T00:18:08;99553.28;;;5.55;97.97
43155;BME280;34212;51.018;13.586;2023-02-12T00:23:10;99564.84;;;5.54;97.84
43155;BME280;34212;51.018;13.586;2023-02-12T00:28:11;99571.91;;;5.54;98.51
43155;BME280;34212;51.018;13.586;2023-02-12T00:33:13;99562.91;;;5.56;98.22
43155;BME280;34212;51.018;13.586;2023-02-12T00:38:14;99579.56;;;5.59;98.18
43155;BME280;34212;51.018;13.586;2023-02-12T00:43:16;99567.03;;;5.61;98.18
43155;BME280;34212;51.018;13.586;2023-02-12T00:48:17;99568.75;;;5.62;98.32
43155;BME280;34212;51.018;13.586;2023-02-12T00:53:19;99575.72;;;5.63;98.16
43155;BME280;34212;51.018;13.586;2023-02-12T00:58:21;99576.56;;;5.63;98.38
43155;BME280;34212;51.018;13.586;2023-02-12T01:03:23;99574.06;;;5.62;98.46
43155;BME280;34212;51.018;13.586;2023-02-12T01:08:25;99590.03;;;5.60;98.06
43155;BME280;34212;51.018;13.586;2023-02-12T01:13:28;99579.56;;;5.59;98.18
43155;BME280;34212;51.018;13.586;2023-02-12T01:18:30;99586.22;;;5.64;98.86
43155;BME280;34212;51.018;13.586;2023-02-12T01:23:32;99588.00;;;5.64;98.44
43155;BME280;34212;51.018;13.586;2023-02-12T01:28:34;99587.28;;;5.62;97.99
43155;BME280;34212;51.018;13.586;2023-02-12T01:33:35;99599.00;;;5.57;98.35
43155;BME280;34212;51.018;13.586;2023-02-12T01:38:37;99590.16;;;5.59;98.00
43155;BME280;34212;51.018;13.586;2023-02-12T01:43:39;99595.44;;;5.59;98.25
43155;BME280;34212;51.018;13.586;2023-02-12T01:48:43;99584.94;;;5.57;98.45
43155;BME280;34212;51.018;13.586;2023-02-12T01:53:48;99585.78;;;5.57;98.24
43155;BME280;34212;51.018;13.586;2023-02-12T01:58:51;99590.97;;;5.59;98.37
43155;BME280;34212;51.018;13.586;2023-02-12T02:04:03;99589.94;;;5.62;98.06
43155;BME280;34212;51.018;13.586;2023-02-12T02:09:06;99600.53;;;5.62;98.59
43155;BME280;34212;51.018;13.586;2023-02-12T02:14:07;99593.31;;;5.64;98.58
43155;BME280;34212;51.018;13.586;2023-02-12T02:25:01;99582.06;;;5.60;98.60
43155;BME280;34212;51.018;13.586;2023-02-12T02:41:09;99590.16;;;5.59;98.29
43155;BME280;34212;51.018;13.586;2023-02-12T02:46:23;99592.03;;;5.56;98.59
43155;BME280;34212;51.018;13.586;2023-02-12T02:51:35;99591.06;;;5.57;98.67
43155;BME280;34212;51.018;13.586;2023-02-12T02:56:41;99595.44;;;5.59;98.58
43155;BME280;34212;51.018;13.586;2023-02-12T03:01:54;99597.88;;;5.62;98.72
43155;BME280;34212;51.018;13.586;2023-02-12T03:07:02;99604.97;;;5.61;98.73
43155;BME280;34212;51.018;13.586;2023-02-12T03:12:14;99610.06;;;5.64;98.95
43155;BME280;34212;51.018;13.586;2023-02-12T03:17:21;99612.59;;;5.66;98.27
43155;BME280;34212;51.018;13.586;2023-02-12T03:22:32;99615.97;;;5.68;98.31
43155;BME280;34212;51.018;13.586;2023-02-12T03:27:46;99623.16;;;5.66;97.83
43155;BME280;34212;51.018;13.586;2023-02-12T03:38:31;99642.03;;;5.61;98.18
43155;BME280;34212;51.018;13.586;2023-02-12T03:43:41;99653.66;;;5.59;98.51
43155;BME280;34212;51.018;13.586;2023-02-12T03:53:56;99652.81;;;5.58;97.86
43155;BME280;34212;51.018;13.586;2023-02-12T03:58:58;99666.78;;;5.60;98.39
43155;BME280;34212;51.018;13.586;2023-02-12T04:04:04;99674.44;;;5.65;98.18
43155;BME280;34212;51.018;13.586;2023-02-12T04:09:08;99682.16;;;5.68;98.05
43155;BME280;34212;51.018;13.586;2023-02-12T04:14:35;99682.03;;;5.69;97.69
43155;BME280;34212;51.018;13.586;2023-02-12T04:35:22;99692.41;;;5.60;97.85
43155;BME280;34212;51.018;13.586;2023-02-12T04:40:25;99688.78;;;5.61;98.04
43155;BME280;34212;51.018;13.586;2023-02-12T04:45:29;99688.78;;;5.61;97.56
43155;BME280;34212;51.018;13.586;2023-02-12T04:50:42;99699.59;;;5.57;97.57
43155;BME280;34212;51.018;13.586;2023-02-12T04:55:44;99700.53;;;5.56;98.08
43155;BME280;34212;51.018;13.586;2023-02-12T05:00:45;99703.19;;;5.56;97.77
43155;BME280;34212;51.018;13.586;2023-02-12T05:05:47;99698.03;;;5.55;97.98
43155;BME280;34212;51.018;13.586;2023-02-12T05:10:48;99702.56;;;5.53;97.81
43155;BME280;34212;51.018;13.586;2023-02-12T05:15:50;99715.69;;;5.54;97.99
43155;BME280;34212;51.018;13.586;2023-02-12T05:20:59;99717.19;;;5.59;97.89
43155;BME280;34212;51.018;13.586;2023-02-12T05:26:04;99718.88;;;5.60;98.02
43155;BME280;34212;51.018;13.586;2023-02-12T05:31:09;99719.72;;;5.60;98.13
43155;BME280;34212;51.018;13.586;2023-02-12T05:36:16;99716.88;;;5.63;97.91
43155;BME280;34212;51.018;13.586;2023-02-12T05:41:20;99723.88;;;5.64;97.98
43155;BME280;34212;51.018;13.586;2023-02-12T05:46:22;99729.06;;;5.66;97.87
43155;BME280;34212;51.018;13.586;2023-02-12T05:51:25;99723.88;;;5.64;98.12
43155;BME280;34212;51.018;13.586;2023-02-12T05:56:27;99729.16;;;5.64;98.02
43155;BME280;34212;51.018;13.586;2023-02-12T06:01:38;99738.59;;;5.68;98.12
43155;BME280;34212;51.018;13.586;2023-02-12T06:06:39;99741.13;;;5.70;98.07
43155;BME280;34212;51.018;13.586;2023-02-12T06:11:42;99737.56;;;5.71;97.92
43155;BME280;34212;51.018;13.586;2023-02-12T06:16:48;99744.34;;;5.75;98.11
43155;BME280;34212;51.018;13.586;2023-02-12T06:21:50;99747.72;;;5.77;97.98
43155;BME280;34212;51.018;13.586;2023-02-12T06:26:51;99766.06;;;5.80;97.86
43155;BME280;34212;51.018;13.586;2023-02-12T06:31:53;99766.78;;;5.82;97.83
43155;BME280;34212;51.018;13.586;2023-02-12T06:36:55;99773.81;;;5.83;97.58
43155;BME280;34212;51.018;13.586;2023-02-12T06:41:56;99784.41;;;5.83;97.38
43155;BME280;34212;51.018;13.586;2023-02-12T06:46:57;99791.19;;;5.87;97.39
43155;BME280;34212;51.018;13.586;2023-02-12T06:51:59;99796.69;;;5.84;97.39
43155;BME280;34212;51.018;13.586;2023-02-12T06:57:03;99798.34;;;5.85;97.51
43155;BME280;34212;51.018;13.586;2023-02-12T07:02:05;99806.03;;;5.90;97.62
43155;BME280;34212;51.018;13.586;2023-02-12T07:07:07;99807.34;;;5.97;97.79
43155;BME280;34212;51.018;13.586;2023-02-12T07:12:09;99822.63;;;6.06;97.38
43155;BME280;34212;51.018;13.586;2023-02-12T07:17:10;99823.81;;;6.15;97.50
43155;BME280;34212;51.018;13.586;2023-02-12T07:22:12;99823.41;;;6.21;97.01
43155;BME280;34212;51.018;13.586;2023-02-12T07:27:13;99829.53;;;6.21;97.02
43155;BME280;34212;51.018;13.586;2023-02-12T07:32:15;99832.06;;;6.23;97.13
43155;BME280;34212;51.018;13.586;2023-02-12T07:37:16;99831.03;;;6.25;96.78
43155;BME280;34212;51.018;13.586;2023-02-12T07:42:22;99835.06;;;6.31;97.27
43155;BME280;34212;51.018;13.586;2023-02-12T07:47:24;99834.22;;;6.31;96.59
43155;BME280;34212;51.018;13.586;2023-02-12T07:52:25;99836.25;;;6.27;96.45
43155;BME280;34212;51.018;13.586;2023-02-12T07:57:27;99844.81;;;6.31;96.81
43155;BME280;34212;51.018;13.586;2023-02-12T08:02:28;99846.22;;;6.36;97.15
43155;BME280;34212;51.018;13.586;2023-02-12T08:07:30;99847.63;;;6.42;97.38
43155;BME280;34212;51.018;13.586;2023-02-12T08:12:31;99853.44;;;6.47;96.64
43155;BME280;34212;51.018;13.586;2023-02-12T08:17:33;99844.44;;;6.50;96.84
43155;BME280;34212;51.018;13.586;2023-02-12T08:22:34;99850.50;;;6.52;96.68
43155;BME280;34212;51.018;13.586;2023-02-12T08:27:36;99861.19;;;6.50;96.76
43155;BME280;34212;51.018;13.586;2023-02-12T08:32:37;99865.75;;;6.48;96.70
43155;BME280;34212;51.018;13.586;2023-02-12T08:37:39;99861.50;;;6.45;96.59
43155;BME280;34212;51.018;13.586;2023-02-12T08:42:40;99862.75;;;6.40;96.49
43155;BME280;34212;51.018;13.586;2023-02-12T08:47:42;99875.88;;;6.41;97.23
43155;BME280;34212;51.018;13.586;2023-02-12T08:52:43;99870.59;;;6.41;97.09
43155;BME280;34212;51.018;13.586;2023-02-12T08:57:44;99888.09;;;6.44;97.58
43155;BME280;34212;51.018;13.586;2023-02-12T09:02:47;99886.28;;;6.44;97.35
43155;BME280;34212;51.018;13.586;2023-02-12T09:07:50;99887.16;;;6.45;97.19
43155;BME280;34212;51.018;13.586;2023-02-12T09:12:53;99900.22;;;6.48;97.43
43155;BME280;34212;51.018;13.586;2023-02-12T09:17:55;99901.16;;;6.60;97.65
43155;BME280;34212;51.018;13.586;2023-02-12T09:22:58;99898.44;;;6.74;97.89
43155;BME280;34212;51.018;13.586;2023-02-12T09:28:01;99902.16;;;6.84;97.48
43155;BME280;34212;51.018;13.586;2023-02-12T09:33:03;99905.34;;;6.89;97.65
43155;BME280;34212;51.018;13.586;2023-02-12T09:38:06;99916.25;;;6.98;97.32
43155;BME280;34212;51.018;13.586;2023-02-12T09:43:16;99916.06;;;7.01;97.57
43155;BME280;34212;51.018;13.586;2023-02-12T09:49:27;99922.44;;;6.98;97.11
43155;BME280;34212;51.018;13.586;2023-02-12T09:54:04;99925.41;;;7.06;98.39
43155;BME280;34212;51.018;13.586;2023-02-12T09:59:07;99923.63;;;7.20;98.04
43155;BME280;34212;51.018;13.586;2023-02-12T10:04:09;99929.84;;;7.31;97.43
43155;BME280;34212;51.018;13.586;2023-02-12T10:31:35;99935.22;;;7.68;97.85
43155;BME280;34212;51.018;13.586;2023-02-12T10:36:41;99931.81;;;7.79;97.47
43155;BME280;34212;51.018;13.586;2023-02-12T10:42:13;99923.81;;;7.92;97.80
43155;BME280;34212;51.018;13.586;2023-02-12T10:47:21;99930.38;;;7.99;97.54
43155;BME280;34212;51.018;13.586;2023-02-12T10:52:29;99926.28;;;8.06;97.47
43155;BME280;34212;51.018;13.586;2023-02-12T10:57:37;99938.41;;;8.10;97.43
43155;BME280;34212;51.018;13.586;2023-02-12T11:02:39;99931.16;;;8.12;97.77
43155;BME280;34212;51.018;13.586;2023-02-12T11:07:49;99924.94;;;8.24;97.52
43155;BME280;34212;51.018;13.586;2023-02-12T11:12:51;99936.56;;;8.34;96.79
43155;BME280;34212;51.018;13.586;2023-02-12T11:18:01;99921.09;;;8.28;96.60
43155;BME280;34212;51.018;13.586;2023-02-12T11:23:23;99922.66;;;8.31;97.03
43155;BME280;34212;51.018;13.586;2023-02-12T11:28:27;99924.25;;;8.33;96.92
43155;BME280;34212;51.018;13.586;2023-02-12T11:33:30;99919.97;;;8.44;96.81
43155;BME280;34212;51.018;13.586;2023-02-12T11:38:33;99913.84;;;8.30;95.57
43155;BME280;34212;51.018;13.586;2023-02-12T11:43:35;99916.69;;;8.16;96.79
43155;BME280;34212;51.018;13.586;2023-02-12T11:48:43;99919.69;;;8.12;96.49
43155;BME280;34212;51.018;13.586;2023-02-12T11:53:50;99908.22;;;8.11;97.43
43155;BME280;34212;51.018;13.586;2023-02-12T11:58:53;99915.22;;;8.12;96.87
43155;BME280;34212;51.018;13.586;2023-02-12T12:04:02;99903.03;;;7.97;96.16
43155;BME280;34212;51.018;13.586;2023-02-12T12:09:31;99907.22;;;7.88;96.33
43155;BME280;34212;51.018;13.586;2023-02-12T12:14:38;99912.34;;;7.78;96.90
43155;BME280;34212;51.018;13.586;2023-02-12T12:20:08;99915.34;;;7.74;97.46
43155;BME280;34212;51.018;13.586;2023-02-12T12:25:28;99908.97;;;7.76;97.23
43155;BME280;34212;51.018;13.586;2023-02-12T12:30:52;99905.44;;;7.89;97.84
43155;BME280;34212;51.018;13.586;2023-02-12T12:46:33;99888.00;;;8.08;96.55
43155;BME280;34212;51.018;13.586;2023-02-12T12:56:51;99890.13;;;8.16;97.74
43155;BME280;34212;51.018;13.586;2023-02-12T13:28:39;99886.59;;;8.16;96.91
43155;BME280;34212;51.018;13.586;2023-02-12T13:33:47;99879.72;;;8.13;96.39
43155;BME280;34212;51.018;13.586;2023-02-12T13:38:56;99874.63;;;8.10;97.13
43155;BME280;34212;51.018;13.586;2023-02-12T14:09:44;99883.88;;;7.80;97.62
43155;BME280;34212;51.018;13.586;2023-02-12T14:14:49;99877.06;;;7.89;97.68
43155;BME280;34212;51.018;13.586;2023-02-12T14:25:00;99895.44;;;7.92;96.93
43155;BME280;34212;51.018;13.586;2023-02-12T14:45:35;99892.63;;;7.94;96.89
43155;BME280;34212;51.018;13.586;2023-02-12T14:50:41;99889.13;;;7.93;97.14
43155;BME280;34212;51.018;13.586;2023-02-12T14:55:50;99893.00;;;7.89;97.61
43155;BME280;34212;51.018;13.586;2023-02-12T15:00:54;99892.16;;;7.89;96.73
43155;BME280;34212;51.018;13.586;2023-02-12T15:11:08;99899.38;;;7.86;96.44
43155;BME280;34212;51.018;13.586;2023-02-12T15:21:34;99901.50;;;7.81;96.81
43155;BME280;34212;51.018;13.586;2023-02-12T15:26:42;99905.34;;;7.77;96.89
43155;BME280;34212;51.018;13.586;2023-02-12T15:31:49;99900.03;;;7.77;96.93
43155;BME280;34212;51.018;13.586;2023-02-12T15:36:54;99897.59;;;7.74;96.71
43155;BME280;34212;51.018;13.586;2023-02-12T15:41:56;99903.03;;;7.73;96.83
43155;BME280;34212;51.018;13.586;2023-02-12T15:47:13;99903.25;;;7.70;96.25
43155;BME280;34212;51.018;13.586;2023-02-12T15:52:22;99898.16;;;7.67;96.69
43155;BME280;34212;51.018;13.586;2023-02-12T15:57:26;99902.09;;;7.61;96.30
43155;BME280;34212;51.018;13.586;2023-02-12T16:02:30;99897.94;;;7.57;96.83
43155;BME280;34212;51.018;13.586;2023-02-12T16:07:35;99903.94;;;7.48;96.26
43155;BME280;34212;51.018;13.586;2023-02-12T16:12:38;99910.13;;;7.35;96.33
43155;BME280;34212;51.018;13.586;2023-02-12T16:17:45;99917.75;;;7.27;96.12
43155;BME280;34212;51.018;13.586;2023-02-12T16:22:48;99910.56;;;7.29;97.10
43155;BME280;34212;51.018;13.586;2023-02-12T16:32:55;99923.28;;;7.37;96.46
43155;BME280;34212;51.018;13.586;2023-02-12T16:43:24;99936.66;;;7.35;96.08
43155;BME280;34212;51.018;13.586;2023-02-12T16:48:26;99940.25;;;7.34;96.30
43155;BME280;34212;51.018;13.586;2023-02-12T16:53:34;99941.97;;;7.35;96.58
43155;BME280;34212;51.018;13.586;2023-02-12T16:58:36;99938.56;;;7.33;96.25
43155;BME280;34212;51.018;13.586;2023-02-12T17:03:38;99947.59;;;7.31;95.17
43155;BME280;34212;51.018;13.586;2023-02-12T17:08:40;99955.13;;;7.24;95.69
43155;BME280;34212;51.018;13.586;2023-02-12T17:13:42;99951.31;;;7.15;95.34
43155;BME280;34212;51.018;13.586;2023-02-12T17:18:43;99953.22;;;7.13;96.02
43155;BME280;34212;51.018;13.586;2023-02-12T17:23:45;99964.06;;;7.10;95.78
43155;BME280;34212;51.018;13.586;2023-02-12T17:28:46;99965.31;;;7.05;95.56
43155;BME280;34212;51.018;13.586;2023-02-12T17:33:48;99967.63;;;6.97;95.43
43155;BME280;34212;51.018;13.586;2023-02-12T17:38:50;99971.66;;;6.89;95.67
43155;BME280;34212;51.018;13.586;2023-02-12T17:43:52;99972.91;;;6.84;95.91
43155;BME280;34212;51.018;13.586;2023-02-12T17:48:54;99979.06;;;6.84;95.99
43155;BME280;34212;51.018;13.586;2023-02-12T17:53:55;99987.03;;;6.84;95.86
43155;BME280;34212;51.018;13.586;2023-02-12T17:58:57;99979.06;;;6.84;95.74
43155;BME280;34212;51.018;13.586;2023-02-12T18:03:59;99980.78;;;6.85;96.10
43155;BME280;34212;51.018;13.586;2023-02-12T18:09:00;99986.72;;;6.89;96.32
43155;BME280;34212;51.018;13.586;2023-02-12T18:14:02;99993.59;;;6.91;96.42
43155;BME280;34212;51.018;13.586;2023-02-12T18:19:04;99988.09;;;6.94;96.19
43155;BME280;34212;51.018;13.586;2023-02-12T18:24:06;99988.84;;;6.97;96.45
43155;BME280;34212;51.018;13.586;2023-02-12T18:29:08;99979.72;;;7.01;96.37
43155;BME280;34212;51.018;13.586;2023-02-12T18:34:09;99988.66;;;7.00;96.45
43155;BME280;34212;51.018;13.586;2023-02-12T18:39:11;99980.41;;;7.04;96.70
43155;BME280;34212;51.018;13.586;2023-02-12T18:44:13;99983.56;;;7.09;96.54
43155;BME280;34212;51.018;13.586;2023-02-12T18:49:15;99984.19;;;7.13;96.33
43155;BME280;34212;51.018;13.586;2023-02-12T18:54:17;99972.75;;;7.12;96.22
43155;BME280;34212;51.018;13.586;2023-02-12T18:59:19;99971.06;;;7.11;96.00
43155;BME280;34212;51.018;13.586;2023-02-12T19:04:25;99969.03;;;7.02;95.69
43155;BME280;34212;51.018;13.586;2023-02-12T19:09:28;99979.09;;;6.97;96.48
43155;BME280;34212;51.018;13.586;2023-02-12T19:14:29;99975.28;;;7.01;96.57
43155;BME280;34212;51.018;13.586;2023-02-12T19:19:31;99971.75;;;7.01;96.37
43155;BME280;34212;51.018;13.586;2023-02-12T19:24:32;99967.63;;;6.97;96.05
43155;BME280;34212;51.018;13.586;2023-02-12T19:29:47;99973.16;;;6.93;95.93
43155;BME280;34212;51.018;13.586;2023-02-12T19:34:48;99967.63;;;6.97;95.96
43155;BME280;34212;51.018;13.586;2023-02-12T19:39:49;99961.47;;;6.96;95.72
43155;BME280;34212;51.018;13.586;2023-02-12T19:44:51;99961.69;;;6.93;95.09
43155;BME280;34212;51.018;13.586;2023-02-12T19:49:52;99961.06;;;6.89;95.88
43155;BME280;34212;51.018;13.586;2023-02-12T19:54:54;99957.22;;;6.93;95.96
43155;BME280;34212;51.018;13.586;2023-02-12T19:59:56;99954.56;;;6.93;96.12
43155;BME280;34212;51.018;13.586;2023-02-12T20:04:58;99952.13;;;6.90;94.91
43155;BME280;34212;51.018;13.586;2023-02-12T20:09:59;99950.84;;;6.83;94.85
43155;BME280;34212;51.018;13.586;2023-02-12T20:15:01;99945.97;;;6.77;95.19
43155;BME280;34212;51.018;13.586;2023-02-12T20:20:04;99941.41;;;6.79;95.12
43155;BME280;34212;51.018;13.586;2023-02-12T20:25:05;99945.75;;;6.80;95.45
43155;BME280;34212;51.018;13.586;2023-02-12T20:30:07;99952.03;;;6.79;95.08
43155;BME280;34212;51.018;13.586;2023-02-12T20:35:10;99955.63;;;6.78;94.85
43155;BME280;34212;51.018;13.586;2023-02-12T20:40:12;99953.16;;;6.75;95.18
43155;BME280;34212;51.018;13.586;2023-02-12T20:45:14;99956.78;;;6.74;95.24
43155;BME280;34212;51.018;13.586;2023-02-12T20:50:15;99967.19;;;6.77;95.49
43155;BME280;34212;51.018;13.586;2023-02-12T20:55:17;99970.28;;;6.84;95.01
43155;BME280;34212;51.018;13.586;2023-02-12T21:00:19;99964.97;;;6.84;95.30
43155;BME280;34212;51.018;13.586;2023-02-12T21:05:20;99960.81;;;6.80;94.88
43155;BME280;34212;51.018;13.586;2023-02-12T21:10:22;99959.78;;;6.82;95.03
43155;BME280;34212;51.018;13.586;2023-02-12T21:15:23;99953.72;;;6.80;94.98
43155;BME280;34212;51.018;13.586;2023-02-12T21:20:25;99955.94;;;6.74;94.16
43155;BME280;34212;51.018;13.586;2023-02-12T21:25:26;99955.50;;;6.67;94.42
43155;BME280;34212;51.018;13.586;2023-02-12T21:30:28;99955.16;;;6.59;94.18
43155;BME280;34212;51.018;13.586;2023-02-12T21:35:29;99957.44;;;6.51;93.52
43155;BME280;34212;51.018;13.586;2023-02-12T21:40:30;99957.53;;;6.36;93.06
43155;BME280;34212;51.018;13.586;2023-02-12T21:45:32;99957.94;;;6.30;93.90
43155;BME280;34212;51.018;13.586;2023-02-12T21:50:34;99958.78;;;6.31;93.92
43155;BME280;34212;51.018;13.586;2023-02-12T21:55:35;99959.94;;;6.27;93.68
43155;BME280;34212;51.018;13.586;2023-02-12T22:00:38;99946.25;;;6.20;94.26
43155;BME280;34212;51.018;13.586;2023-02-12T22:05:39;99936.72;;;6.30;95.20
43155;BME280;34212;51.018;13.586;2023-02-12T22:10:41;99944.41;;;6.47;95.45
43155;BME280;34212;51.018;13.586;2023-02-12T22:15:42;99963.94;;;6.59;95.22
43155;BME280;34212;51.018;13.586;2023-02-12T22:20:44;99963.44;;;6.54;94.97
43155;BME280;34212;51.018;13.586;2023-02-12T22:25:45;99962.56;;;6.54;95.52
43155;BME280;34212;51.018;13.586;2023-02-12T22:30:46;99966.81;;;6.56;95.50
43155;BME280;34212;51.018;13.586;2023-02-12T22:35:48;99965.56;;;6.62;95.45
43155;BME280;34212;51.018;13.586;2023-02-12T22:40:51;99954.00;;;6.63;95.82
43155;BME280;34212;51.018;13.586;2023-02-12T22:45:53;99960.41;;;6.73;96.39
43155;BME280;34212;51.018;13.586;2023-02-12T22:50:55;99954.88;;;6.76;95.38
43155;BME280;34212;51.018;13.586;2023-02-12T22:56:00;99958.47;;;6.75;95.53
43155;BME280;34212;51.018;13.586;2023-02-12T23:01:10;99955.09;;;6.73;95.54
43155;BME280;34212;51.018;13.586;2023-02-12T23:06:16;99955.94;;;6.74;95.29
43155;BME280;34212;51.018;13.586;2023-02-12T23:11:18;99942.97;;;6.69;95.37
43155;BME280;34212;51.018;13.586;2023-02-12T23:16:21;99949.31;;;6.66;95.56
43155;BME280;34212;51.018;13.586;2023-02-12T23:21:23;99947.97;;;6.74;95.88
43155;BME280;34212;51.018;13.586;2023-02-12T23:26:27;99944.28;;;6.76;95.46
43155;BME280;34212;51.018;13.586;2023-02-12T23:31:29;99952.25;;;6.76;95.52
43155;BME280;34212;51.018;13.586;2023-02-12T23:36:30;99941.31;;;6.81;96.00
43155;BME280;34212;51.018;13.586;2023-02-12T23:41:33;99945.34;;;6.86;96.32
43155;BME280;34212;51.018;13.586;2023-02-12T23:46:35;99941.53;;;6.90;96.26
43155;BME280;34212;51.018;13.586;2023-02-12T23:51:36;99936.75;;;6.96;96.41
43155;BME280;34212;51.018;13.586;2023-02-12T23:56:38;99931.13;;;7.00;96.07
